createdAt,value
2022-12-07T00:01:23.341Z,43.90
2022-12-07T00:03:25.067Z,43.90
2022-12-07T00:05:26.743Z,43.90
2022-12-07T00:07:28.379Z,44.00
2022-12-07T00:09:30.060Z,44.00
2022-12-07T00:11:31.798Z,43.90
2022-12-07T00:13:34.561Z,43.90
2022-12-07T00:15:36.570Z,44.10
2022-12-07T00:17:38.219Z,44.10
2022-12-07T00:19:39.879Z,44.00
2022-12-07T00:21:42.170Z,44.00
2022-12-07T00:23:45.306Z,44.00
2022-12-07T00:25:48.887Z,44.00
2022-12-07T00:27:50.520Z,44.00
2022-12-07T00:29:52.127Z,44.10
2022-12-07T00:31:53.766Z,44.10
2022-12-07T00:33:55.673Z,44.10
2022-12-07T00:35:58.727Z,44.10
2022-12-07T00:38:00.345Z,44.10
2022-12-07T00:40:02.352Z,44.10
2022-12-07T00:42:04.124Z,44.10
2022-12-07T00:44:05.818Z,44.10
2022-12-07T00:46:07.704Z,44.10
2022-12-07T00:48:09.304Z,44.10
2022-12-07T00:50:11.112Z,44.10
2022-12-07T00:52:12.695Z,44.10
2022-12-07T00:54:14.295Z,44.10
2022-12-07T00:56:22.574Z,44.10
2022-12-07T00:58:24.954Z,44.10
2022-12-07T01:00:26.681Z,44.10
2022-12-07T01:02:28.394Z,44.10
2022-12-07T01:04:30.575Z,44.10
2022-12-07T01:06:32.905Z,44.10
2022-12-07T01:08:34.572Z,44.10
2022-12-07T01:10:36.225Z,44.10
2022-12-07T01:12:37.871Z,44.10
2022-12-07T01:14:39.506Z,44.10
2022-12-07T01:16:41.362Z,44.10
2022-12-07T01:18:43.726Z,44.10
2022-12-07T01:20:45.371Z,44.10
2022-12-07T01:22:47.041Z,44.10
2022-12-07T01:24:48.814Z,44.10
2022-12-07T01:26:50.999Z,44.20
2022-12-07T01:28:55.737Z,44.10
2022-12-07T01:31:06.346Z,44.10
2022-12-07T01:33:07.968Z,44.10
2022-12-07T01:35:09.751Z,44.10
2022-12-07T01:37:11.392Z,44.20
2022-12-07T01:39:13.039Z,44.20
2022-12-07T01:41:15.656Z,44.20
2022-12-07T01:43:19.743Z,44.20
2022-12-07T01:45:41.604Z,44.20
2022-12-07T01:47:47.809Z,44.20
2022-12-07T01:49:50.259Z,44.20
2022-12-07T01:51:57.951Z,44.30
2022-12-07T01:54:00.302Z,44.40
2022-12-07T01:56:02.094Z,44.30
2022-12-07T01:58:04.477Z,44.30
2022-12-07T02:00:08.231Z,44.30
2022-12-07T02:02:18.808Z,44.30
2022-12-07T02:04:20.791Z,44.30
2022-12-07T02:06:25.773Z,44.30
2022-12-07T02:08:27.972Z,44.40
2022-12-07T02:10:31.960Z,44.40
2022-12-07T02:12:33.561Z,44.40
2022-12-07T02:14:35.579Z,44.40
2022-12-07T02:17:11.314Z,44.40
2022-12-07T02:19:39.570Z,44.40
2022-12-07T02:22:07.555Z,44.40
2022-12-07T02:24:39.943Z,44.40
2022-12-07T02:26:53.511Z,44.40
2022-12-07T02:29:17.621Z,44.40
2022-12-07T02:31:24.282Z,44.40
2022-12-07T02:33:32.609Z,44.40
2022-12-07T02:36:01.054Z,44.40
2022-12-07T02:38:33.166Z,44.40
2022-12-07T02:40:52.454Z,44.40
2022-12-07T02:43:06.275Z,44.50
2022-12-07T02:45:09.271Z,44.50
2022-12-07T02:47:14.557Z,44.40
2022-12-07T02:49:17.252Z,44.50
2022-12-07T02:51:20.031Z,44.40
2022-12-07T02:53:32.170Z,44.50
2022-12-07T02:55:42.093Z,44.50
2022-12-07T02:57:59.155Z,44.50
2022-12-07T03:00:14.855Z,44.50
2022-12-07T03:02:19.267Z,44.50
2022-12-07T03:04:34.148Z,44.50
2022-12-07T03:06:44.518Z,44.50
2022-12-07T03:08:49.177Z,44.50
2022-12-07T03:11:07.793Z,44.50
2022-12-07T03:13:29.115Z,44.50
2022-12-07T03:15:43.890Z,44.50
2022-12-07T03:17:48.742Z,44.50
2022-12-07T03:19:53.057Z,44.50
2022-12-07T03:22:14.718Z,44.50
2022-12-07T03:24:24.021Z,44.50
2022-12-07T03:26:35.363Z,44.50
2022-12-07T03:28:39.105Z,44.50
2022-12-07T03:30:52.384Z,44.50
2022-12-07T03:33:00.780Z,44.40
2022-12-07T03:35:18.491Z,44.40
2022-12-07T03:37:37.510Z,44.40
2022-12-07T03:39:49.194Z,44.40
2022-12-07T03:41:52.482Z,44.50
2022-12-07T03:43:57.837Z,44.40
2022-12-07T03:46:22.635Z,44.40
2022-12-07T03:49:07.598Z,44.80
2022-12-07T03:51:34.599Z,45.10
2022-12-07T03:53:43.418Z,44.50
2022-12-07T03:55:47.139Z,44.50
2022-12-07T03:57:52.000Z,44.40
2022-12-07T03:59:56.219Z,44.40
2022-12-07T04:02:04.538Z,44.40
2022-12-07T04:04:06.243Z,44.50
2022-12-07T04:06:08.094Z,44.50
2022-12-07T04:08:10.031Z,44.40
2022-12-07T04:10:12.603Z,44.40
2022-12-07T04:12:14.384Z,44.30
2022-12-07T04:14:19.393Z,44.30
2022-12-07T04:16:21.485Z,44.30
2022-12-07T04:18:23.274Z,44.40
2022-12-07T04:20:25.098Z,44.30
2022-12-07T04:22:26.777Z,44.20
2022-12-07T04:24:28.962Z,44.40
2022-12-07T04:26:30.571Z,44.40
2022-12-07T04:28:32.227Z,44.40
2022-12-07T04:30:33.858Z,44.50
2022-12-07T04:32:35.766Z,44.50
2022-12-07T04:34:37.422Z,44.50
2022-12-07T04:36:39.836Z,44.30
2022-12-07T04:38:41.478Z,44.30
2022-12-07T04:40:43.127Z,44.30
2022-12-07T04:42:44.753Z,44.20
2022-12-07T04:44:46.408Z,44.20
2022-12-07T04:46:48.380Z,44.20
2022-12-07T04:48:50.502Z,44.20
2022-12-07T04:50:52.181Z,44.10
2022-12-07T04:52:53.885Z,44.20
2022-12-07T04:54:55.547Z,44.40
2022-12-07T04:56:57.170Z,44.50
2022-12-07T04:58:58.811Z,44.40
2022-12-07T05:01:00.502Z,44.70
2022-12-07T05:03:02.192Z,44.90
2022-12-07T05:05:04.227Z,44.70
2022-12-07T05:07:05.863Z,44.60
2022-12-07T05:09:07.494Z,44.60
2022-12-07T05:11:10.046Z,44.40
2022-12-07T05:13:11.709Z,44.40
2022-12-07T05:15:14.647Z,44.40
2022-12-07T05:17:17.590Z,44.40
2022-12-07T05:19:20.135Z,44.50
2022-12-07T05:21:21.947Z,44.60
2022-12-07T05:23:23.642Z,44.60
2022-12-07T05:25:25.624Z,44.60
2022-12-07T05:27:27.408Z,44.60
2022-12-07T05:29:29.075Z,44.60
2022-12-07T05:31:30.832Z,44.60
2022-12-07T05:33:32.459Z,44.60
2022-12-07T05:35:34.167Z,44.70
2022-12-07T05:37:35.806Z,44.70
2022-12-07T05:39:38.721Z,44.60
2022-12-07T05:41:59.088Z,44.60
2022-12-07T05:44:01.218Z,44.70
2022-12-07T05:46:02.886Z,44.70
2022-12-07T05:48:04.627Z,44.70
2022-12-07T05:50:07.609Z,44.80
2022-12-07T05:52:09.280Z,44.60
2022-12-07T05:54:10.958Z,44.60
2022-12-07T05:56:12.714Z,44.40
2022-12-07T05:58:32.826Z,44.40
2022-12-07T06:00:34.470Z,44.30
2022-12-07T06:02:36.241Z,41.80
2022-12-07T06:04:41.008Z,42.70
2022-12-07T06:06:42.700Z,43.60
2022-12-07T06:08:44.428Z,43.80
2022-12-07T06:10:47.581Z,44.00
2022-12-07T06:12:49.351Z,43.90
2022-12-07T06:14:51.336Z,44.00
2022-12-07T06:16:53.114Z,44.10
2022-12-07T06:18:54.841Z,44.00
2022-12-07T06:20:56.477Z,43.90
2022-12-07T06:22:58.186Z,43.80
2022-12-07T06:25:01.171Z,43.80
2022-12-07T06:27:05.232Z,43.60
2022-12-07T06:29:07.162Z,43.50
2022-12-07T06:31:13.593Z,43.60
2022-12-07T06:33:15.617Z,43.50
2022-12-07T06:35:17.362Z,43.40
2022-12-07T06:37:19.014Z,43.40
2022-12-07T06:39:25.410Z,43.30
2022-12-07T06:41:27.063Z,43.20
2022-12-07T06:43:28.916Z,43.20
2022-12-07T06:45:30.549Z,43.10
2022-12-07T06:47:40.671Z,43.00
2022-12-07T06:49:43.929Z,43.00
2022-12-07T06:51:45.635Z,43.20
2022-12-07T06:53:47.477Z,42.80
2022-12-07T06:55:49.236Z,42.70
2022-12-07T06:57:50.863Z,42.70
2022-12-07T06:59:52.552Z,42.70
2022-12-07T07:01:54.275Z,42.60
2022-12-07T07:03:55.951Z,42.60
2022-12-07T07:05:57.610Z,42.60
2022-12-07T07:08:21.558Z,42.60
2022-12-07T07:10:20.931Z,42.50
2022-12-07T07:12:22.619Z,42.50
2022-12-07T07:14:24.309Z,42.40
2022-12-07T07:16:26.032Z,42.40
2022-12-07T07:18:28.002Z,42.40
2022-12-07T07:20:30.671Z,42.40
2022-12-07T07:22:32.366Z,42.20
2022-12-07T07:24:33.979Z,42.20
2022-12-07T07:26:35.633Z,42.20
2022-12-07T07:28:37.574Z,42.10
2022-12-07T07:30:39.347Z,42.10
2022-12-07T07:32:41.097Z,42.10
2022-12-07T07:34:42.738Z,42.10
2022-12-07T07:36:44.359Z,42.00
2022-12-07T07:38:45.975Z,42.00
2022-12-07T07:40:47.661Z,42.00
2022-12-07T07:42:50.796Z,41.90
2022-12-07T07:44:52.502Z,42.00
2022-12-07T07:46:54.171Z,41.90
2022-12-07T07:48:55.810Z,41.80
2022-12-07T07:50:57.415Z,41.90
2022-12-07T07:52:59.155Z,41.80
2022-12-07T07:55:00.796Z,41.80
2022-12-07T07:57:02.490Z,41.70
2022-12-07T07:59:04.222Z,41.70
2022-12-07T08:01:07.738Z,41.70
2022-12-07T08:03:09.412Z,41.60
2022-12-07T08:05:12.928Z,41.60
2022-12-07T08:07:15.672Z,41.60
2022-12-07T08:09:17.332Z,41.50
2022-12-07T08:11:19.342Z,41.50
2022-12-07T08:13:23.735Z,41.50
2022-12-07T08:15:29.271Z,41.50
2022-12-07T08:17:30.903Z,41.40
2022-12-07T08:19:32.600Z,41.40
2022-12-07T08:21:34.285Z,41.40
2022-12-07T08:23:39.888Z,41.40
2022-12-07T08:25:41.910Z,41.30
2022-12-07T08:27:43.593Z,41.30
2022-12-07T08:29:45.271Z,41.20
2022-12-07T08:31:47.313Z,41.30
2022-12-07T08:33:49.802Z,41.20
2022-12-07T08:35:51.447Z,41.90
2022-12-07T08:37:53.060Z,41.10
2022-12-07T08:39:55.223Z,41.10
2022-12-07T08:41:56.858Z,41.10
2022-12-07T08:43:58.507Z,41.00
2022-12-07T08:46:24.978Z,41.00
2022-12-07T08:48:26.953Z,41.10
2022-12-07T08:50:28.866Z,41.00
2022-12-07T08:52:32.168Z,41.00
2022-12-07T08:54:37.275Z,41.00
2022-12-07T08:56:39.590Z,41.00
2022-12-07T08:58:42.040Z,41.00
2022-12-07T09:00:43.704Z,41.00
2022-12-07T09:02:46.460Z,41.00
2022-12-07T09:04:48.143Z,41.00
2022-12-07T09:06:50.170Z,40.90
2022-12-07T09:08:56.593Z,40.80
2022-12-07T09:10:58.278Z,40.90
2022-12-07T09:13:01.648Z,40.80
2022-12-07T09:15:03.622Z,40.90
2022-12-07T09:17:10.091Z,40.80
2022-12-07T09:19:11.725Z,40.80
2022-12-07T09:21:13.354Z,40.80
2022-12-07T09:23:14.977Z,40.80
2022-12-07T09:25:16.743Z,40.70
2022-12-07T09:27:19.515Z,40.70
2022-12-07T09:29:21.157Z,40.60
2022-12-07T09:31:24.685Z,40.60
2022-12-07T09:33:27.043Z,40.60
2022-12-07T09:35:28.727Z,40.50
2022-12-07T09:37:30.643Z,40.60
2022-12-07T09:39:32.309Z,40.60
2022-12-07T09:41:34.421Z,40.50
2022-12-07T09:43:37.590Z,40.50
2022-12-07T09:45:43.188Z,40.50
2022-12-07T09:47:47.750Z,40.50
2022-12-07T09:49:49.782Z,40.50
2022-12-07T09:52:27.546Z,40.50
2022-12-07T09:54:30.837Z,40.50
2022-12-07T09:56:32.868Z,40.50
2022-12-07T09:58:34.862Z,40.40
2022-12-07T10:00:36.480Z,40.40
2022-12-07T10:02:42.851Z,40.30
2022-12-07T10:04:45.711Z,40.30
2022-12-07T10:06:48.880Z,40.40
2022-12-07T10:08:50.506Z,40.30
2022-12-07T10:10:54.955Z,40.30
2022-12-07T10:13:20.297Z,40.30
2022-12-07T10:15:22.613Z,40.30
2022-12-07T10:17:41.731Z,40.30
2022-12-07T10:19:43.460Z,40.20
2022-12-07T10:22:06.100Z,40.20
2022-12-07T10:24:15.640Z,40.20
2022-12-07T10:26:26.975Z,40.80
2022-12-07T10:28:40.353Z,40.20
2022-12-07T10:31:06.017Z,40.10
2022-12-07T10:33:35.005Z,40.10
2022-12-07T10:35:44.354Z,40.10
2022-12-07T10:37:46.670Z,40.10
2022-12-07T10:39:53.920Z,40.10
2022-12-07T10:41:58.529Z,40.00
2022-12-07T10:44:00.290Z,40.00
2022-12-07T10:46:33.825Z,40.00
2022-12-07T10:48:47.141Z,40.00
2022-12-07T10:51:13.082Z,40.00
2022-12-07T10:53:17.438Z,40.00
2022-12-07T10:55:34.098Z,40.00
2022-12-07T10:58:19.987Z,39.90
2022-12-07T11:00:26.440Z,40.00
2022-12-07T11:02:42.737Z,39.90
2022-12-07T11:05:10.900Z,39.90
2022-12-07T11:07:35.683Z,39.90
2022-12-07T11:10:10.933Z,39.90
2022-12-07T11:13:00.301Z,39.90
2022-12-07T11:15:07.953Z,39.90
2022-12-07T11:17:18.844Z,39.90
2022-12-07T11:19:36.160Z,39.90
2022-12-07T11:22:18.575Z,39.80
2022-12-07T11:24:29.781Z,39.80
2022-12-07T11:26:41.892Z,39.80
2022-12-07T11:29:02.323Z,39.80
2022-12-07T11:31:34.776Z,39.80
2022-12-07T11:33:59.624Z,39.70
2022-12-07T11:36:10.228Z,39.80
2022-12-07T11:38:29.999Z,39.80
2022-12-07T11:40:37.972Z,39.80
2022-12-07T11:42:47.354Z,39.70
2022-12-07T11:44:57.540Z,39.70
2022-12-07T11:47:17.775Z,39.70
2022-12-07T11:49:37.471Z,39.70
2022-12-07T11:51:41.679Z,39.70
2022-12-07T11:53:56.905Z,39.70
2022-12-07T11:56:02.722Z,39.70
2022-12-07T11:58:13.215Z,39.70
2022-12-07T12:00:18.602Z,39.60
2022-12-07T12:02:29.404Z,39.70
2022-12-07T12:04:57.881Z,39.70
2022-12-07T12:14:36.655Z,39.60
2022-12-07T12:16:50.807Z,39.60
2022-12-07T12:19:21.778Z,39.60
2022-12-07T12:21:29.310Z,39.60
2022-12-07T12:23:47.578Z,39.60
2022-12-07T12:25:52.004Z,39.60
2022-12-07T12:27:56.335Z,39.60
2022-12-07T12:30:01.438Z,39.60
2022-12-07T12:32:24.928Z,39.60
2022-12-07T12:34:59.609Z,39.50
2022-12-07T12:37:01.514Z,39.60
2022-12-07T12:39:15.182Z,39.60
2022-12-07T12:41:39.274Z,39.60
2022-12-07T12:43:53.393Z,39.60
2022-12-07T12:46:30.473Z,39.50
2022-12-07T12:48:38.300Z,39.60
2022-12-07T12:50:39.954Z,39.50
2022-12-07T12:52:44.546Z,39.50
2022-12-07T12:55:09.811Z,39.50
2022-12-07T12:57:32.612Z,39.60
2022-12-07T12:59:54.461Z,39.50
2022-12-07T13:02:23.120Z,39.50
2022-12-07T13:04:38.281Z,39.50
2022-12-07T13:06:42.548Z,39.50
2022-12-07T13:08:44.276Z,39.50
2022-12-07T13:10:48.025Z,39.50
2022-12-07T13:13:02.344Z,39.50
2022-12-07T13:15:04.857Z,39.50
2022-12-07T13:17:12.789Z,39.50
2022-12-07T13:19:42.469Z,39.50
2022-12-07T13:21:45.374Z,39.50
2022-12-07T13:23:47.059Z,39.50
2022-12-07T13:26:19.524Z,39.50
2022-12-07T13:28:23.468Z,39.50
2022-12-07T13:30:25.473Z,39.50
2022-12-07T13:32:33.573Z,39.50
2022-12-07T13:34:41.085Z,39.50
2022-12-07T13:36:45.926Z,39.50
2022-12-07T13:38:56.393Z,40.20
2022-12-07T13:41:22.117Z,39.50
2022-12-07T13:43:23.750Z,39.50
2022-12-07T13:45:49.797Z,39.40
2022-12-07T13:47:58.330Z,39.40
2022-12-07T13:50:00.019Z,39.40
2022-12-07T13:52:23.962Z,39.40
2022-12-07T13:54:25.640Z,39.40
2022-12-07T13:56:33.203Z,39.40
2022-12-07T13:58:35.118Z,39.50
2022-12-07T14:00:37.048Z,39.50
2022-12-07T14:03:03.616Z,39.40
2022-12-07T14:05:10.144Z,39.40
2022-12-07T14:07:20.902Z,39.40
2022-12-07T14:09:27.818Z,39.40
2022-12-07T14:11:30.961Z,39.40
2022-12-07T14:13:37.269Z,39.40
2022-12-07T14:15:38.888Z,39.40
2022-12-07T14:17:52.518Z,39.40
2022-12-07T14:19:57.994Z,39.40
2022-12-07T14:22:20.536Z,39.50
2022-12-07T14:24:22.211Z,39.40
2022-12-07T14:26:23.882Z,39.50
2022-12-07T14:28:31.889Z,39.50
2022-12-07T14:30:35.360Z,39.50
2022-12-07T14:32:38.785Z,39.60
2022-12-07T14:34:40.446Z,39.60
2022-12-07T14:36:42.089Z,39.60
2022-12-07T14:38:43.948Z,40.20
2022-12-07T14:40:45.611Z,39.60
2022-12-07T14:42:51.101Z,39.50
2022-12-07T14:44:52.707Z,39.50
2022-12-07T14:53:57.489Z,39.50
2022-12-07T14:55:59.402Z,39.50
2022-12-07T14:58:01.081Z,39.40
2022-12-07T15:00:03.351Z,39.50
2022-12-07T15:02:06.230Z,39.90
2022-12-07T15:04:08.041Z,40.10
2022-12-07T15:06:16.222Z,40.00
2022-12-07T15:08:18.793Z,40.10
2022-12-07T15:10:24.664Z,40.10
2022-12-07T15:12:26.962Z,40.30
2022-12-07T15:14:28.558Z,40.30
2022-12-07T15:16:36.901Z,40.40
2022-12-07T15:19:26.317Z,40.30
2022-12-07T15:21:16.433Z,40.40
2022-12-07T15:23:18.546Z,40.50
2022-12-07T15:25:20.184Z,40.50
2022-12-07T15:27:22.228Z,40.60
2022-12-07T15:29:24.252Z,40.60
2022-12-07T15:31:54.485Z,40.60
2022-12-07T15:33:47.560Z,40.80
2022-12-07T15:35:49.236Z,40.80
2022-12-07T15:37:51.042Z,40.80
2022-12-07T15:39:52.695Z,40.90
2022-12-07T15:41:54.335Z,40.70
2022-12-07T15:44:14.664Z,40.70
2022-12-07T15:46:16.508Z,40.60
2022-12-07T15:48:27.691Z,40.60
2022-12-07T15:50:30.144Z,40.60
2022-12-07T15:52:32.094Z,40.60
2022-12-07T15:54:33.798Z,40.50
2022-12-07T15:56:35.522Z,41.20
2022-12-07T15:58:37.249Z,40.50
2022-12-07T16:00:38.884Z,40.60
2022-12-07T16:02:40.622Z,40.50
2022-12-07T16:04:42.448Z,41.30
2022-12-07T16:06:44.342Z,40.90
2022-12-07T16:08:47.075Z,40.70
2022-12-07T16:10:48.708Z,40.60
2022-12-07T16:12:50.408Z,40.60
2022-12-07T16:14:52.097Z,40.60
2022-12-07T16:16:53.769Z,40.60
2022-12-07T16:18:55.699Z,40.60
2022-12-07T16:20:57.325Z,40.70
2022-12-07T16:22:59.302Z,40.60
2022-12-07T16:25:01.246Z,40.60
2022-12-07T16:27:03.019Z,40.50
2022-12-07T16:29:04.694Z,40.40
2022-12-07T16:31:12.820Z,40.50
2022-12-07T16:33:14.542Z,40.60
2022-12-07T16:35:16.314Z,40.60
2022-12-07T16:37:18.221Z,40.60
2022-12-07T16:39:19.930Z,40.70
2022-12-07T16:41:21.687Z,40.60
2022-12-07T16:43:23.563Z,40.80
2022-12-07T16:45:25.346Z,40.90
2022-12-07T16:47:27.162Z,41.00
2022-12-07T16:49:28.803Z,40.70
2022-12-07T16:51:30.794Z,40.50
2022-12-07T16:53:32.511Z,40.70
2022-12-07T16:55:38.186Z,40.70
2022-12-07T16:57:39.832Z,40.70
2022-12-07T16:59:41.451Z,40.80
2022-12-07T17:01:43.116Z,40.70
2022-12-07T17:03:45.483Z,40.80
2022-12-07T17:05:47.975Z,40.80
2022-12-07T17:07:49.676Z,41.00
2022-12-07T17:09:53.065Z,41.40
2022-12-07T17:11:54.714Z,41.50
2022-12-07T17:14:14.790Z,41.60
2022-12-07T17:16:16.509Z,42.10
2022-12-07T17:18:18.162Z,43.20
2022-12-07T17:20:20.693Z,43.30
2022-12-07T17:22:22.339Z,43.40
2022-12-07T17:24:23.974Z,43.50
2022-12-07T17:26:29.489Z,43.60
2022-12-07T17:28:35.729Z,43.50
2022-12-07T17:30:39.258Z,43.40
2022-12-07T17:32:41.006Z,43.30
2022-12-07T17:34:42.733Z,43.40
2022-12-07T17:36:45.883Z,43.50
2022-12-07T17:38:48.395Z,43.50
2022-12-07T17:40:50.057Z,43.40
2022-12-07T17:42:51.669Z,43.30
2022-12-07T17:44:53.285Z,43.10
2022-12-07T17:46:57.691Z,43.20
2022-12-07T17:48:59.918Z,43.30
2022-12-07T17:51:20.722Z,43.00
2022-12-07T17:53:22.438Z,42.80
2022-12-07T17:55:24.351Z,42.90
2022-12-07T17:57:26.132Z,42.80
2022-12-07T17:59:28.117Z,42.80
2022-12-07T18:01:34.391Z,42.70
2022-12-07T18:03:37.447Z,42.60
2022-12-07T18:05:42.926Z,42.70
2022-12-07T18:07:44.742Z,41.10
2022-12-07T18:09:46.575Z,41.10
2022-12-07T18:11:48.458Z,41.60
2022-12-07T18:13:50.149Z,41.90
2022-12-07T18:15:58.143Z,42.10
2022-12-07T18:17:59.808Z,42.00
2022-12-07T18:20:01.526Z,42.00
2022-12-07T18:22:04.790Z,42.50
2022-12-07T18:24:07.058Z,42.80
2022-12-07T18:26:08.702Z,42.30
2022-12-07T18:28:10.314Z,42.10
2022-12-07T18:30:12.410Z,42.40
2022-12-07T18:32:14.116Z,42.60
2022-12-07T18:34:18.086Z,42.70
2022-12-07T18:36:19.743Z,42.80
2022-12-07T18:38:21.386Z,42.80
2022-12-07T18:40:23.036Z,42.80
2022-12-07T18:42:25.066Z,42.60
2022-12-07T18:44:26.753Z,42.60
2022-12-07T18:46:29.658Z,42.10
2022-12-07T18:48:31.283Z,41.90
2022-12-07T18:50:33.249Z,41.30
2022-12-07T18:52:35.085Z,41.30
2022-12-07T18:54:36.764Z,41.50
2022-12-07T18:56:38.708Z,41.70
2022-12-07T18:59:03.981Z,41.60
2022-12-07T19:01:05.746Z,41.50
2022-12-07T19:03:07.419Z,41.70
2022-12-07T19:05:09.413Z,41.90
2022-12-07T19:07:12.026Z,41.70
2022-12-07T19:09:13.926Z,42.20
2022-12-07T19:11:39.254Z,41.50
2022-12-07T19:13:40.921Z,42.60
2022-12-07T19:15:42.631Z,41.70
2022-12-07T19:17:44.293Z,41.60
2022-12-07T19:19:47.608Z,42.00
2022-12-07T19:21:49.785Z,41.70
2022-12-07T19:23:51.750Z,41.70
2022-12-07T19:25:55.079Z,41.50
2022-12-07T19:27:56.730Z,41.40
2022-12-07T19:29:59.015Z,41.40
2022-12-07T19:32:03.546Z,41.30
2022-12-07T19:34:10.985Z,41.20
2022-12-07T19:36:12.827Z,41.10
2022-12-07T19:38:14.458Z,41.20
2022-12-07T19:40:16.227Z,41.30
2022-12-07T19:42:18.721Z,41.40
2022-12-07T19:44:23.440Z,41.50
2022-12-07T19:46:25.545Z,41.60
2022-12-07T19:48:27.178Z,41.60
2022-12-07T19:50:29.788Z,41.80
2022-12-07T19:52:36.506Z,41.80
2022-12-07T19:54:39.238Z,41.90
2022-12-07T19:56:42.345Z,41.80
2022-12-07T19:58:43.989Z,41.90
2022-12-07T20:00:45.610Z,41.80
2022-12-07T20:02:51.620Z,41.90
2022-12-07T20:04:53.290Z,41.90
2022-12-07T20:06:57.482Z,41.80
2022-12-07T20:08:59.279Z,41.80
2022-12-07T20:11:20.946Z,41.80
2022-12-07T20:13:34.506Z,41.90
2022-12-07T20:15:38.297Z,41.80
2022-12-07T20:17:39.891Z,41.80
2022-12-07T20:19:41.628Z,41.70
2022-12-07T20:21:44.235Z,41.80
2022-12-07T20:23:46.167Z,41.70
2022-12-07T20:25:47.820Z,41.70
2022-12-07T20:27:49.468Z,41.70
2022-12-07T20:29:51.257Z,41.70
2022-12-07T20:31:54.044Z,41.70
2022-12-07T20:33:57.487Z,41.70
2022-12-07T20:36:04.109Z,41.70
2022-12-07T20:38:05.850Z,41.60
2022-12-07T20:40:07.982Z,41.60
2022-12-07T20:42:28.934Z,41.70
2022-12-07T20:44:30.571Z,41.60
2022-12-07T20:46:32.320Z,41.70
2022-12-07T20:48:34.037Z,41.60
2022-12-07T20:50:41.917Z,41.50
2022-12-07T20:52:43.866Z,41.50
2022-12-07T20:54:45.559Z,41.60
2022-12-07T20:56:47.214Z,42.30
2022-12-07T20:58:49.003Z,41.50
2022-12-07T21:00:50.646Z,41.50
2022-12-07T21:02:52.696Z,41.50
2022-12-07T21:04:54.430Z,41.70
2022-12-07T21:06:56.093Z,41.50
2022-12-07T21:08:59.695Z,41.40
2022-12-07T21:11:07.282Z,41.30
2022-12-07T21:13:08.953Z,41.30
2022-12-07T21:15:10.765Z,41.20
2022-12-07T21:17:12.401Z,41.20
2022-12-07T21:19:14.208Z,41.20
2022-12-07T21:21:19.146Z,41.20
2022-12-07T21:23:20.811Z,41.20
2022-12-07T21:25:22.518Z,41.00
2022-12-07T21:27:24.187Z,41.10
2022-12-07T21:29:42.588Z,41.00
2022-12-07T21:31:45.251Z,41.00
2022-12-07T21:33:47.337Z,41.00
2022-12-07T21:35:48.930Z,41.00
2022-12-07T21:37:50.573Z,41.00
2022-12-07T21:39:52.333Z,41.00
2022-12-07T21:41:54.099Z,41.00
2022-12-07T21:43:56.502Z,41.00
2022-12-07T21:45:58.211Z,41.00
2022-12-07T21:48:00.009Z,41.00
2022-12-07T21:50:01.648Z,40.90
2022-12-07T21:52:03.914Z,40.90
2022-12-07T21:54:06.355Z,40.90
2022-12-07T21:56:29.741Z,40.90
2022-12-07T21:58:31.907Z,40.90
2022-12-07T22:00:33.532Z,40.90
2022-12-07T22:02:35.246Z,40.90
2022-12-07T22:04:36.870Z,40.90
2022-12-07T22:06:38.887Z,41.00
2022-12-07T22:08:41.590Z,41.10
2022-12-07T22:10:43.233Z,41.10
2022-12-07T22:12:44.870Z,41.10
2022-12-07T22:15:05.638Z,41.10
2022-12-07T22:17:07.507Z,41.20
2022-12-07T22:19:09.206Z,41.20
2022-12-07T22:21:10.843Z,41.30
2022-12-07T22:23:12.487Z,41.30
2022-12-07T22:25:14.845Z,41.30
2022-12-07T22:27:17.146Z,41.30
2022-12-07T22:29:18.897Z,41.30
2022-12-07T22:31:20.943Z,41.40
2022-12-07T22:33:22.906Z,41.30
2022-12-07T22:35:24.566Z,41.30
2022-12-07T22:37:29.669Z,41.40
2022-12-07T22:39:31.406Z,41.40
2022-12-07T22:41:33.251Z,41.50
2022-12-07T22:43:34.886Z,41.50
2022-12-07T22:45:39.359Z,41.50
2022-12-07T22:47:41.114Z,41.50
2022-12-07T22:49:42.947Z,41.60
2022-12-07T22:51:44.698Z,41.60
2022-12-07T22:53:46.363Z,41.60
2022-12-07T22:55:48.442Z,41.60
2022-12-07T22:57:50.504Z,41.60
2022-12-07T22:59:52.151Z,41.60
2022-12-07T23:01:53.810Z,41.60
2022-12-07T23:03:56.528Z,41.60
2022-12-07T23:05:58.153Z,41.60
2022-12-07T23:08:00.256Z,41.60
2022-12-07T23:10:02.092Z,41.60
2022-12-07T23:12:42.619Z,41.60
2022-12-07T23:14:44.257Z,41.60
2022-12-07T23:16:46.708Z,41.60
2022-12-07T23:18:48.338Z,41.60
2022-12-07T23:20:49.982Z,41.60
2022-12-07T23:22:51.636Z,41.70
2022-12-07T23:24:53.334Z,41.70
2022-12-07T23:26:55.129Z,41.70
2022-12-07T23:28:58.297Z,41.70
2022-12-07T23:31:08.409Z,41.70
2022-12-07T23:33:10.093Z,41.70
2022-12-07T23:35:11.746Z,41.70
2022-12-07T23:37:13.401Z,41.70
2022-12-07T23:39:15.105Z,41.70
2022-12-07T23:41:18.919Z,41.70
2022-12-07T23:43:20.566Z,41.70
2022-12-07T23:45:22.334Z,41.70
2022-12-07T23:47:24.060Z,41.70
2022-12-07T23:49:25.663Z,41.60
2022-12-07T23:51:27.298Z,41.70
2022-12-07T23:53:31.951Z,41.60
2022-12-07T23:55:33.661Z,41.70
2022-12-07T23:57:35.323Z,41.70
2022-12-07T23:59:37.882Z,41.60
